createdAt,value
2022-10-15T00:02:26.340Z,17.70
2022-10-15T00:04:56.475Z,17.70
2022-10-15T00:07:27.224Z,17.70
2022-10-15T00:09:57.394Z,17.70
2022-10-15T00:12:27.574Z,17.70
2022-10-15T00:14:57.839Z,17.60
2022-10-15T00:17:28.064Z,17.40
2022-10-15T00:19:58.208Z,17.30
2022-10-15T00:22:28.399Z,17.10
2022-10-15T00:24:58.643Z,17.10
2022-10-15T00:27:29.087Z,17.20
2022-10-15T00:30:01.782Z,17.30
2022-10-15T00:32:33.650Z,17.40
2022-10-15T00:35:03.844Z,17.40
2022-10-15T00:37:34.011Z,17.40
2022-10-15T00:40:04.177Z,17.40
2022-10-15T00:42:34.338Z,17.20
2022-10-15T00:45:05.206Z,17.30
2022-10-15T00:47:41.952Z,17.50
2022-10-15T00:50:14.933Z,17.80
2022-10-15T00:53:04.380Z,18.00
2022-10-15T00:55:36.077Z,18.30
2022-10-15T00:58:15.570Z,18.40
2022-10-15T01:00:46.161Z,18.60
2022-10-15T01:03:16.297Z,18.80
2022-10-15T01:05:48.524Z,18.90
2022-10-15T01:08:19.723Z,19.00
2022-10-15T01:11:07.952Z,19.10
2022-10-15T01:13:51.732Z,18.90
2022-10-15T01:16:30.195Z,18.80
2022-10-15T01:19:30.804Z,18.70
2022-10-15T01:22:11.010Z,18.60
2022-10-15T01:25:04.165Z,18.70
2022-10-15T01:27:48.175Z,18.60
2022-10-15T01:30:23.744Z,18.50
2022-10-15T01:32:57.927Z,18.50
2022-10-15T01:36:00.210Z,18.40
2022-10-15T01:38:59.499Z,18.50
2022-10-15T01:41:32.813Z,18.60
2022-10-15T01:44:06.632Z,18.80
2022-10-15T01:46:51.069Z,19.00
2022-10-15T01:49:28.240Z,19.10
2022-10-15T01:52:01.051Z,19.10
2022-10-15T01:54:32.610Z,19.30
2022-10-15T01:57:04.055Z,19.40
2022-10-15T01:59:36.697Z,19.60
2022-10-15T02:02:07.315Z,19.70
2022-10-15T02:04:38.674Z,19.80
2022-10-15T02:07:32.864Z,19.80
2022-10-15T02:10:21.404Z,19.80
2022-10-15T02:13:10.788Z,19.80
2022-10-15T02:15:52.698Z,19.80
2022-10-15T02:18:47.060Z,19.90
2022-10-15T02:21:46.227Z,20.00
2022-10-15T02:24:31.081Z,20.10
2022-10-15T02:27:03.338Z,20.00
2022-10-15T02:29:37.243Z,20.10
2022-10-15T02:32:09.995Z,20.10
2022-10-15T02:34:42.535Z,20.10
2022-10-15T02:37:13.308Z,20.00
2022-10-15T02:39:43.662Z,20.00
2022-10-15T02:42:14.466Z,20.10
2022-10-15T02:44:44.628Z,20.20
2022-10-15T02:47:15.351Z,20.20
2022-10-15T02:49:45.609Z,20.10
2022-10-15T02:52:16.018Z,19.90
2022-10-15T02:54:46.184Z,20.00
2022-10-15T02:57:16.501Z,20.00
2022-10-15T02:59:46.655Z,20.00
2022-10-15T03:02:19.218Z,19.90
2022-10-15T03:04:49.679Z,19.90
2022-10-15T03:07:19.978Z,19.80
2022-10-15T03:09:50.204Z,19.90
2022-10-15T03:12:22.583Z,19.90
2022-10-15T03:14:52.889Z,19.90
2022-10-15T03:17:23.530Z,19.90
2022-10-15T03:19:53.987Z,19.90
2022-10-15T03:22:24.201Z,19.90
2022-10-15T03:24:54.767Z,19.90
2022-10-15T03:27:25.794Z,19.90
2022-10-15T03:29:56.089Z,19.90
2022-10-15T03:32:26.322Z,20.00
2022-10-15T03:34:56.417Z,19.90
2022-10-15T03:37:26.815Z,19.90
2022-10-15T03:39:56.928Z,20.10
2022-10-15T03:42:27.259Z,20.00
2022-10-15T03:44:57.420Z,20.00
2022-10-15T03:47:28.882Z,20.10
2022-10-15T03:49:59.023Z,20.10
2022-10-15T03:52:30.005Z,20.10
2022-10-15T03:55:02.728Z,19.90
2022-10-15T03:57:33.309Z,19.70
2022-10-15T04:00:04.063Z,19.70
2022-10-15T04:02:35.450Z,19.70
2022-10-15T04:05:05.814Z,19.60
2022-10-15T04:07:36.362Z,19.50
2022-10-15T04:10:06.705Z,19.60
2022-10-15T04:12:36.901Z,19.70
2022-10-15T04:15:07.755Z,19.60
2022-10-15T04:17:37.927Z,19.50
2022-10-15T04:20:08.420Z,19.40
2022-10-15T04:22:40.383Z,19.30
2022-10-15T04:25:11.115Z,19.20
2022-10-15T04:27:41.680Z,19.20
2022-10-15T04:30:12.477Z,19.10
2022-10-15T04:32:42.689Z,19.10
2022-10-15T04:35:12.995Z,19.20
2022-10-15T04:37:43.584Z,19.20
2022-10-15T04:40:15.366Z,19.10
2022-10-15T04:42:47.366Z,19.20
2022-10-15T04:45:18.055Z,19.00
2022-10-15T04:47:49.003Z,19.00
2022-10-15T04:50:19.483Z,18.90
2022-10-15T04:52:50.354Z,18.90
2022-10-15T04:55:21.090Z,18.90
2022-10-15T04:57:51.971Z,18.90
2022-10-15T05:00:22.748Z,18.90
2022-10-15T05:02:53.833Z,18.90
2022-10-15T05:05:24.357Z,18.90
2022-10-15T05:07:55.783Z,18.90
2022-10-15T05:10:26.364Z,18.80
2022-10-15T05:12:57.231Z,18.80
2022-10-15T05:15:29.504Z,18.80
2022-10-15T05:18:00.351Z,18.80
2022-10-15T05:20:30.887Z,18.70
2022-10-15T05:23:01.471Z,18.80
2022-10-15T05:25:32.018Z,18.70
2022-10-15T05:28:02.686Z,18.70
2022-10-15T05:30:33.327Z,18.70
2022-10-15T05:33:04.055Z,18.60
2022-10-15T05:35:34.693Z,18.60
2022-10-15T05:38:06.364Z,18.50
2022-10-15T05:40:37.250Z,18.30
2022-10-15T05:43:07.887Z,18.30
2022-10-15T05:45:38.692Z,18.20
2022-10-15T05:48:09.940Z,18.10
2022-10-15T05:50:40.684Z,18.10
2022-10-15T05:53:12.125Z,18.10
2022-10-15T05:55:42.746Z,18.00
2022-10-15T05:58:14.574Z,17.90
2022-10-15T06:00:45.398Z,17.80
2022-10-15T06:03:16.925Z,17.80
2022-10-15T06:05:47.040Z,17.80
2022-10-15T06:08:17.604Z,17.80
2022-10-15T06:10:47.945Z,17.80
2022-10-15T06:13:19.104Z,17.70
2022-10-15T06:15:49.490Z,17.70
2022-10-15T06:18:20.285Z,17.60
2022-10-15T06:21:00.129Z,17.60
2022-10-15T06:23:30.575Z,17.50
2022-10-15T06:26:08.748Z,17.40
2022-10-15T06:28:40.328Z,17.40
2022-10-15T06:31:11.429Z,17.30
2022-10-15T06:33:41.859Z,17.20
2022-10-15T06:36:15.305Z,17.20
2022-10-15T06:38:48.898Z,17.10
2022-10-15T06:41:19.939Z,17.10
2022-10-15T06:46:22.981Z,17.00
2022-10-15T06:48:53.750Z,17.00
2022-10-15T06:51:24.124Z,16.90
2022-10-15T06:53:55.817Z,16.90
2022-10-15T06:56:25.971Z,16.80
2022-10-15T06:58:56.342Z,16.70
2022-10-15T07:01:27.748Z,16.70
2022-10-15T07:03:58.625Z,16.70
2022-10-15T07:06:29.360Z,16.60
2022-10-15T07:09:00.564Z,16.50
2022-10-15T07:11:31.203Z,16.50
2022-10-15T07:14:01.820Z,16.50
2022-10-15T07:16:32.175Z,16.50
2022-10-15T07:19:02.846Z,16.40
2022-10-15T07:21:33.380Z,16.30
2022-10-15T07:24:03.913Z,16.30
2022-10-15T07:26:34.439Z,16.20
2022-10-15T07:29:05.922Z,16.20
2022-10-15T07:31:38.398Z,16.10
2022-10-15T07:34:09.827Z,16.10
2022-10-15T07:36:40.361Z,16.00
2022-10-15T07:39:11.759Z,15.90
2022-10-15T07:41:43.911Z,15.90
2022-10-15T07:44:20.831Z,15.90
2022-10-15T07:46:51.043Z,15.80
2022-10-15T07:49:21.268Z,15.70
2022-10-15T07:51:51.482Z,15.70
2022-10-15T07:54:21.815Z,15.60
2022-10-15T07:56:52.309Z,15.60
2022-10-15T07:59:23.047Z,15.50
2022-10-15T08:01:53.639Z,15.40
2022-10-15T08:04:24.284Z,15.30
2022-10-15T08:06:55.494Z,15.30
2022-10-15T08:09:26.378Z,15.20
2022-10-15T08:11:57.091Z,15.10
2022-10-15T08:14:28.005Z,15.10
2022-10-15T08:17:02.195Z,15.00
2022-10-15T08:19:32.846Z,15.00
2022-10-15T08:22:15.743Z,14.90
2022-10-15T08:24:46.400Z,14.80
2022-10-15T08:27:18.352Z,14.80
2022-10-15T08:29:48.982Z,14.70
2022-10-15T08:32:19.515Z,14.60
2022-10-15T08:34:50.086Z,14.60
2022-10-15T08:37:20.747Z,14.50
2022-10-15T08:39:51.659Z,14.50
2022-10-15T08:42:40.054Z,14.40
2022-10-15T08:45:24.812Z,14.40
2022-10-15T08:48:01.693Z,14.30
2022-10-15T08:50:54.074Z,14.20
2022-10-15T08:53:26.342Z,14.20
2022-10-15T08:56:00.845Z,14.20
2022-10-15T08:58:43.414Z,14.10
2022-10-15T09:01:25.340Z,14.10
2022-10-15T09:04:03.902Z,14.00
2022-10-15T09:06:42.077Z,13.90
2022-10-15T09:09:24.709Z,13.90
2022-10-15T09:12:16.018Z,13.80
2022-10-15T09:14:48.902Z,13.80
2022-10-15T09:17:33.852Z,13.70
2022-10-15T09:20:09.487Z,13.70
2022-10-15T09:22:39.753Z,13.60
2022-10-15T09:25:22.710Z,13.60
2022-10-15T09:27:54.753Z,13.50
2022-10-15T09:30:45.288Z,13.50
2022-10-15T09:33:39.545Z,13.50
2022-10-15T09:36:43.570Z,13.50
2022-10-15T09:39:43.166Z,13.50
2022-10-15T09:42:25.523Z,13.40
2022-10-15T09:45:00.300Z,13.40
2022-10-15T09:47:36.282Z,13.40
2022-10-15T09:50:11.727Z,13.30
2022-10-15T09:52:48.065Z,13.30
2022-10-15T09:55:35.400Z,13.20
2022-10-15T09:58:10.884Z,13.20
2022-10-15T10:00:56.364Z,13.10
2022-10-15T10:03:30.260Z,13.10
2022-10-15T10:06:18.710Z,13.00
2022-10-15T10:08:57.027Z,13.00
2022-10-15T10:11:29.763Z,13.00
2022-10-15T10:14:03.171Z,13.00
2022-10-15T10:16:37.242Z,12.90
2022-10-15T10:19:18.090Z,12.80
2022-10-15T10:21:49.215Z,12.80
2022-10-15T10:24:33.814Z,12.80
2022-10-15T10:29:42.914Z,12.70
2022-10-15T10:32:24.912Z,12.70
2022-10-15T10:34:55.500Z,12.60
2022-10-15T10:37:26.896Z,12.60
2022-10-15T10:40:00.152Z,12.60
2022-10-15T10:42:39.979Z,12.50
2022-10-15T10:47:56.585Z,12.40
2022-10-15T10:50:36.384Z,12.40
2022-10-15T10:53:27.412Z,12.40
2022-10-15T10:56:03.331Z,12.30
2022-10-15T10:58:36.388Z,12.30
2022-10-15T11:01:06.636Z,12.20
2022-10-15T11:03:47.439Z,12.20
2022-10-15T11:06:20.581Z,12.20
2022-10-15T11:09:12.782Z,12.20
2022-10-15T11:11:52.317Z,12.10
2022-10-15T11:14:46.974Z,12.00
2022-10-15T11:17:35.205Z,12.00
2022-10-15T11:20:50.892Z,11.90
2022-10-15T11:23:44.528Z,11.80
2022-10-15T11:26:20.669Z,11.80
2022-10-15T11:29:02.239Z,11.80
2022-10-15T11:32:02.763Z,11.70
2022-10-15T11:34:54.865Z,11.70
2022-10-15T11:38:02.983Z,11.60
2022-10-15T11:40:43.941Z,11.60
2022-10-15T11:43:21.866Z,11.60
2022-10-15T11:46:18.402Z,11.50
2022-10-15T11:49:15.508Z,11.50
2022-10-15T11:52:14.278Z,11.50
2022-10-15T11:55:21.219Z,11.50
2022-10-15T11:57:54.895Z,11.60
2022-10-15T12:00:39.226Z,11.60
2022-10-15T12:03:32.241Z,11.60
2022-10-15T12:06:06.174Z,11.60
2022-10-15T12:08:39.484Z,11.60
2022-10-15T12:11:19.136Z,11.60
2022-10-15T12:14:15.275Z,11.60
2022-10-15T12:16:51.131Z,11.70
2022-10-15T12:19:39.678Z,11.70
2022-10-15T12:22:15.254Z,11.70
2022-10-15T12:24:51.947Z,11.60
2022-10-15T12:27:22.343Z,11.60
2022-10-15T12:29:55.722Z,11.60
2022-10-15T12:32:30.928Z,11.60
2022-10-15T12:37:52.403Z,11.50
2022-10-15T12:40:26.233Z,11.50
2022-10-15T12:43:23.863Z,11.40
2022-10-15T12:46:05.857Z,11.40
2022-10-15T12:48:42.193Z,11.40
2022-10-15T12:51:27.687Z,11.30
2022-10-15T12:54:00.414Z,11.30
2022-10-15T12:56:45.837Z,11.20
2022-10-15T12:59:47.982Z,11.20
2022-10-15T13:05:37.843Z,11.10
2022-10-15T13:08:22.080Z,11.10
2022-10-15T13:10:55.811Z,11.10
2022-10-15T13:13:32.441Z,11.10
2022-10-15T13:16:11.638Z,11.10
2022-10-15T13:18:56.033Z,11.00
2022-10-15T13:21:47.999Z,11.00
2022-10-15T13:24:22.434Z,10.90
2022-10-15T13:26:54.059Z,10.90
2022-10-15T13:29:29.874Z,10.90
2022-10-15T13:32:01.166Z,10.90
2022-10-15T13:34:35.500Z,10.90
2022-10-15T13:37:07.051Z,10.80
2022-10-15T13:39:43.872Z,10.80
2022-10-15T13:42:23.385Z,10.80
2022-10-15T13:45:21.071Z,10.80
2022-10-15T13:47:54.129Z,10.70
2022-10-15T13:50:39.024Z,10.60
2022-10-15T13:53:23.564Z,10.50
2022-10-15T13:55:59.018Z,10.50
2022-10-15T13:58:41.712Z,10.50
2022-10-15T14:01:17.219Z,10.40
2022-10-15T14:04:04.124Z,10.30
2022-10-15T14:06:45.470Z,10.30
2022-10-15T14:09:22.392Z,10.20
2022-10-15T14:11:53.513Z,10.10
2022-10-15T14:14:44.335Z,10.10
2022-10-15T14:17:18.997Z,10.00
2022-10-15T14:20:21.786Z,10.00
2022-10-15T14:22:51.632Z,10.00
2022-10-15T14:25:26.952Z,9.90
2022-10-15T14:27:57.323Z,9.80
2022-10-15T14:30:34.777Z,9.80
2022-10-15T14:33:04.985Z,9.70
2022-10-15T14:35:37.794Z,9.70
2022-10-15T14:38:29.655Z,9.60
2022-10-15T14:41:30.544Z,9.60
2022-10-15T14:44:19.535Z,9.60
2022-10-15T14:46:53.539Z,9.50
2022-10-15T14:49:35.576Z,9.40
2022-10-15T14:52:19.268Z,9.40
2022-10-15T14:55:04.138Z,9.30
2022-10-15T14:57:39.473Z,9.30
2022-10-15T15:00:17.818Z,9.30
2022-10-15T15:02:52.575Z,9.20
2022-10-15T15:05:26.572Z,9.20
2022-10-15T15:08:04.433Z,9.10
2022-10-15T15:10:37.050Z,9.10
2022-10-15T15:13:08.512Z,9.10
2022-10-15T15:15:39.324Z,9.00
2022-10-15T15:18:14.906Z,9.00
2022-10-15T15:20:48.401Z,8.90
2022-10-15T15:23:24.860Z,8.90
2022-10-15T15:25:56.475Z,8.90
2022-10-15T15:28:29.460Z,8.80
2022-10-15T15:31:10.270Z,8.80
2022-10-15T15:33:40.798Z,8.70
2022-10-15T15:36:18.914Z,8.60
2022-10-15T15:38:55.215Z,8.60
2022-10-15T15:41:27.801Z,8.60
2022-10-15T15:43:58.139Z,8.50
2022-10-15T15:46:28.577Z,8.40
2022-10-15T15:49:00.577Z,8.40
2022-10-15T15:51:34.303Z,8.40
2022-10-15T15:54:07.865Z,8.40
2022-10-15T15:56:40.105Z,8.30
2022-10-15T15:59:10.786Z,8.30
2022-10-15T16:01:42.586Z,8.30
2022-10-15T16:04:13.218Z,8.30
2022-10-15T16:06:45.559Z,8.30
2022-10-15T16:09:16.075Z,8.30
2022-10-15T16:11:48.708Z,8.30
2022-10-15T16:14:19.544Z,8.30
2022-10-15T16:16:50.175Z,8.20
2022-10-15T16:19:21.221Z,8.20
2022-10-15T16:21:51.775Z,8.10
2022-10-15T16:24:23.665Z,8.10
2022-10-15T16:26:54.260Z,8.10
2022-10-15T16:29:24.859Z,8.10
2022-10-15T16:31:56.120Z,8.10
2022-10-15T16:34:27.014Z,8.10
2022-10-15T16:36:57.636Z,8.00
2022-10-15T16:39:28.375Z,8.00
2022-10-15T16:41:58.662Z,7.90
2022-10-15T16:44:29.117Z,7.90
2022-10-15T16:47:00.027Z,7.90
2022-10-15T16:49:31.017Z,7.80
2022-10-15T16:52:01.475Z,7.80
2022-10-15T16:54:31.984Z,7.70
2022-10-15T16:57:02.421Z,7.70
2022-10-15T16:59:33.062Z,7.70
2022-10-15T17:02:03.459Z,7.70
2022-10-15T17:04:34.755Z,7.70
2022-10-15T17:07:04.987Z,7.70
2022-10-15T17:09:35.471Z,7.70
2022-10-15T17:12:05.825Z,7.60
2022-10-15T17:14:36.577Z,7.60
2022-10-15T17:17:07.272Z,7.50
2022-10-15T17:19:37.767Z,7.50
2022-10-15T17:22:08.425Z,7.40
2022-10-15T17:24:39.083Z,7.40
2022-10-15T17:27:10.373Z,7.40
2022-10-15T17:29:40.729Z,7.40
2022-10-15T17:32:10.883Z,7.40
2022-10-15T17:34:41.075Z,7.40
2022-10-15T17:37:12.207Z,7.40
2022-10-15T17:39:43.237Z,7.30
2022-10-15T17:42:15.245Z,7.30
2022-10-15T17:44:45.400Z,7.30
2022-10-15T17:47:15.794Z,7.30
2022-10-15T17:49:46.016Z,7.30
2022-10-15T17:52:16.238Z,7.20
2022-10-15T17:54:47.573Z,7.20
2022-10-15T17:57:17.708Z,7.20
2022-10-15T17:59:51.160Z,7.20
2022-10-15T18:02:22.064Z,7.20
2022-10-15T18:04:52.621Z,7.10
2022-10-15T18:07:23.112Z,7.10
2022-10-15T18:09:54.061Z,7.10
2022-10-15T18:12:24.268Z,7.10
2022-10-15T18:14:54.500Z,7.00
2022-10-15T18:17:24.957Z,7.00
2022-10-15T18:19:55.231Z,7.00
2022-10-15T18:22:25.900Z,7.00
2022-10-15T18:24:58.540Z,6.90
2022-10-15T18:27:28.954Z,7.00
2022-10-15T18:29:59.216Z,6.90
2022-10-15T18:32:29.485Z,6.90
2022-10-15T18:34:59.780Z,6.80
2022-10-15T18:37:30.428Z,6.70
2022-10-15T18:40:00.612Z,6.80
2022-10-15T18:42:31.074Z,6.70
2022-10-15T18:45:01.237Z,6.70
2022-10-15T18:47:31.466Z,6.70
2022-10-15T18:50:01.835Z,6.70
2022-10-15T18:52:39.985Z,6.70
2022-10-15T18:55:12.161Z,6.70
2022-10-15T18:57:43.826Z,6.70
2022-10-15T19:00:15.446Z,6.60
2022-10-15T19:02:46.159Z,6.60
2022-10-15T19:05:16.671Z,6.60
2022-10-15T19:07:47.028Z,6.60
2022-10-15T19:10:19.201Z,6.60
2022-10-15T19:12:50.258Z,6.60
2022-10-15T19:15:20.504Z,6.60
2022-10-15T19:17:50.806Z,6.50
2022-10-15T19:20:21.078Z,6.50
2022-10-15T19:22:51.352Z,6.50
2022-10-15T19:25:22.042Z,6.50
2022-10-15T19:27:52.681Z,6.50
2022-10-15T19:30:22.977Z,6.50
2022-10-15T19:32:53.495Z,6.50
2022-10-15T19:35:23.619Z,6.50
2022-10-15T19:37:53.809Z,6.50
2022-10-15T19:40:23.998Z,6.50
2022-10-15T19:42:55.545Z,6.50
2022-10-15T19:45:26.094Z,6.50
2022-10-15T19:47:59.938Z,6.60
2022-10-15T19:50:33.244Z,6.60
2022-10-15T19:53:03.414Z,6.70
2022-10-15T19:55:34.154Z,6.80
2022-10-15T19:58:04.497Z,6.90
2022-10-15T20:00:35.366Z,6.90
2022-10-15T20:03:06.428Z,7.10
2022-10-15T20:05:36.606Z,7.10
2022-10-15T20:08:07.173Z,7.20
2022-10-15T20:10:37.937Z,7.30
2022-10-15T20:13:08.155Z,7.30
2022-10-15T20:15:43.323Z,7.40
2022-10-15T20:18:14.801Z,7.40
2022-10-15T20:20:47.225Z,7.50
2022-10-15T20:23:19.679Z,7.50
2022-10-15T20:25:51.136Z,7.60
2022-10-15T20:28:22.219Z,7.70
2022-10-15T20:30:56.871Z,7.80
2022-10-15T20:33:27.115Z,7.90
2022-10-15T20:35:57.310Z,8.00
2022-10-15T20:38:27.524Z,8.10
2022-10-15T20:40:57.696Z,8.20
2022-10-15T20:43:28.016Z,8.30
2022-10-15T20:45:58.217Z,8.50
2022-10-15T20:48:29.791Z,8.60
2022-10-15T20:51:00.029Z,8.80
2022-10-15T20:53:31.424Z,8.90
2022-10-15T20:56:02.975Z,9.00
2022-10-15T20:58:33.801Z,9.10
2022-10-15T21:01:04.922Z,9.20
2022-10-15T21:03:35.297Z,9.30
2022-10-15T21:06:06.213Z,9.30
2022-10-15T21:08:37.115Z,9.40
2022-10-15T21:11:08.907Z,9.40
2022-10-15T21:13:39.115Z,9.40
2022-10-15T21:16:10.551Z,9.50
2022-10-15T21:18:42.428Z,9.60
2022-10-15T21:21:17.273Z,9.70
2022-10-15T21:23:47.610Z,9.80
2022-10-15T21:26:20.015Z,9.90
2022-10-15T21:28:50.582Z,9.90
2022-10-15T21:31:20.914Z,9.90
2022-10-15T21:33:51.311Z,9.90
2022-10-15T21:36:28.387Z,9.90
2022-10-15T21:39:06.188Z,9.90
2022-10-15T21:41:38.652Z,9.90
2022-10-15T21:44:10.541Z,9.90
2022-10-15T21:46:43.333Z,10.00
2022-10-15T21:49:16.385Z,10.10
2022-10-15T21:51:47.235Z,10.40
2022-10-15T21:54:17.411Z,10.70
2022-10-15T21:56:47.932Z,11.00
2022-10-15T21:59:19.784Z,11.30
2022-10-15T22:01:50.471Z,11.50
2022-10-15T22:04:22.458Z,11.70
2022-10-15T22:06:52.643Z,11.80
2022-10-15T22:09:22.921Z,12.00
2022-10-15T22:11:53.027Z,12.10
2022-10-15T22:14:23.278Z,12.30
2022-10-15T22:16:53.415Z,12.50
2022-10-15T22:19:24.245Z,12.70
2022-10-15T22:21:54.440Z,13.00
2022-10-15T22:24:24.585Z,13.20
2022-10-15T22:26:55.462Z,13.40
2022-10-15T22:29:31.782Z,13.70
2022-10-15T22:32:04.777Z,13.90
2022-10-15T22:34:34.954Z,14.10
2022-10-15T22:37:05.390Z,14.00
2022-10-15T22:39:35.689Z,14.00
2022-10-15T22:42:06.090Z,14.00
2022-10-15T22:44:36.686Z,14.00
2022-10-15T22:47:07.064Z,14.00
2022-10-15T22:49:37.163Z,14.00
2022-10-15T22:52:07.481Z,14.00
2022-10-15T22:54:38.251Z,14.10
2022-10-15T22:57:08.593Z,14.10
2022-10-15T22:59:39.432Z,14.10
2022-10-15T23:02:09.775Z,14.20
2022-10-15T23:04:40.535Z,14.20
2022-10-15T23:07:10.649Z,14.20
2022-10-15T23:09:40.749Z,14.20
2022-10-15T23:12:11.045Z,14.20
2022-10-15T23:14:41.185Z,14.30
2022-10-15T23:17:11.516Z,14.30
2022-10-15T23:19:41.667Z,14.40
2022-10-15T23:22:12.045Z,14.50
2022-10-15T23:24:42.593Z,14.50
2022-10-15T23:27:15.780Z,14.50
2022-10-15T23:29:48.225Z,14.60
2022-10-15T23:32:23.942Z,14.50
2022-10-15T23:34:55.187Z,14.60
2022-10-15T23:37:26.194Z,14.50
2022-10-15T23:39:56.837Z,14.60
2022-10-15T23:42:27.200Z,14.70
2022-10-15T23:44:57.424Z,14.80
2022-10-15T23:47:28.076Z,14.90
2022-10-15T23:49:58.557Z,14.90
2022-10-15T23:52:29.317Z,15.00
2022-10-15T23:54:59.608Z,15.00
2022-10-15T23:57:30.822Z,15.10
